sensor_id;sensor_type;location;lat;lon;timestamp;P1;durP1;ratioP1;P2;durP2;ratioP2
63801;SDS011;49949;43.060;25.624;2023-03-01T00:00:08;30.65;;;10.68;;
63801;SDS011;49949;43.060;25.624;2023-03-01T00:02:46;18.92;;;7.93;;
63801;SDS011;49949;43.060;25.624;2023-03-01T00:05:13;21.30;;;10.88;;
63801;SDS011;49949;43.060;25.624;2023-03-01T00:07:39;21.58;;;10.85;;
63801;SDS011;49949;43.060;25.624;2023-03-01T00:10:09;21.40;;;9.20;;
63801;SDS011;49949;43.060;25.624;2023-03-01T00:12:35;15.65;;;7.78;;
63801;SDS011;49949;43.060;25.624;2023-03-01T00:15:01;24.73;;;10.82;;
63801;SDS011;49949;43.060;25.624;2023-03-01T00:17:29;55.03;;;21.08;;
63801;SDS011;49949;43.060;25.624;2023-03-01T00:25:57;10.50;;;6.63;;
63801;SDS011;49949;43.060;25.624;2023-03-01T00:28:23;13.18;;;7.45;;
63801;SDS011;49949;43.060;25.624;2023-03-01T00:30:49;12.82;;;7.28;;
63801;SDS011;49949;43.060;25.624;2023-03-01T00:33:16;14.52;;;6.95;;
63801;SDS011;49949;43.060;25.624;2023-03-01T00:35:41;11.95;;;5.57;;
63801;SDS011;49949;43.060;25.624;2023-03-01T00:38:09;8.50;;;4.57;;
63801;SDS011;49949;43.060;25.624;2023-03-01T00:40:36;12.85;;;4.65;;
63801;SDS011;49949;43.060;25.624;2023-03-01T00:48:21;8.77;;;4.10;;
63801;SDS011;49949;43.060;25.624;2023-03-01T00:50:48;5.28;;;4.57;;
63801;SDS011;49949;43.060;25.624;2023-03-01T00:53:14;6.95;;;4.28;;
63801;SDS011;49949;43.060;25.624;2023-03-01T00:55:46;6.43;;;4.70;;
63801;SDS011;49949;43.060;25.624;2023-03-01T00:58:13;6.63;;;4.50;;
63801;SDS011;49949;43.060;25.624;2023-03-01T01:00:39;7.05;;;4.95;;
63801;SDS011;49949;43.060;25.624;2023-03-01T01:03:05;7.57;;;5.40;;
63801;SDS011;49949;43.060;25.624;2023-03-01T01:19:41;9.60;;;6.85;;
63801;SDS011;49949;43.060;25.624;2023-03-01T01:22:42;8.60;;;6.82;;
63801;SDS011;49949;43.060;25.624;2023-03-01T01:25:08;10.48;;;6.43;;
63801;SDS011;49949;43.060;25.624;2023-03-01T01:30:33;9.05;;;6.50;;
63801;SDS011;49949;43.060;25.624;2023-03-01T01:33:06;8.20;;;6.10;;
63801;SDS011;49949;43.060;25.624;2023-03-01T01:35:34;7.97;;;5.10;;
63801;SDS011;49949;43.060;25.624;2023-03-01T01:38:02;7.03;;;4.95;;
63801;SDS011;49949;43.060;25.624;2023-03-01T01:40:29;8.00;;;3.75;;
63801;SDS011;49949;43.060;25.624;2023-03-01T01:42:55;7.05;;;4.75;;
63801;SDS011;49949;43.060;25.624;2023-03-01T01:48:11;5.25;;;4.22;;
63801;SDS011;49949;43.060;25.624;2023-03-01T01:51:40;5.03;;;4.28;;
63801;SDS011;49949;43.060;25.624;2023-03-01T02:02:22;4.53;;;3.85;;
63801;SDS011;49949;43.060;25.624;2023-03-01T02:04:49;3.97;;;3.38;;
63801;SDS011;49949;43.060;25.624;2023-03-01T02:07:35;3.70;;;3.13;;
63801;SDS011;49949;43.060;25.624;2023-03-01T02:10:26;3.03;;;2.72;;
63801;SDS011;49949;43.060;25.624;2023-03-01T02:13:02;4.57;;;3.20;;
63801;SDS011;49949;43.060;25.624;2023-03-01T02:18:10;3.67;;;3.20;;
63801;SDS011;49949;43.060;25.624;2023-03-01T02:23:23;3.67;;;3.28;;
63801;SDS011;49949;43.060;25.624;2023-03-01T02:26:07;5.22;;;3.75;;
63801;SDS011;49949;43.060;25.624;2023-03-01T02:28:40;6.13;;;3.70;;
63801;SDS011;49949;43.060;25.624;2023-03-01T02:31:09;5.80;;;3.40;;
63801;SDS011;49949;43.060;25.624;2023-03-01T02:34:11;4.15;;;3.15;;
63801;SDS011;49949;43.060;25.624;2023-03-01T02:39:36;5.22;;;4.25;;
63801;SDS011;49949;43.060;25.624;2023-03-01T02:42:14;7.47;;;4.80;;
63801;SDS011;49949;43.060;25.624;2023-03-01T02:44:43;4.68;;;4.13;;
63801;SDS011;49949;43.060;25.624;2023-03-01T02:47:10;4.93;;;3.90;;
63801;SDS011;49949;43.060;25.624;2023-03-01T02:49:36;5.55;;;4.05;;
63801;SDS011;49949;43.060;25.624;2023-03-01T02:57:45;5.70;;;4.30;;
63801;SDS011;49949;43.060;25.624;2023-03-01T03:00:17;4.68;;;4.10;;
63801;SDS011;49949;43.060;25.624;2023-03-01T03:02:46;5.80;;;4.38;;
63801;SDS011;49949;43.060;25.624;2023-03-01T03:05:15;4.35;;;3.90;;
63801;SDS011;49949;43.060;25.624;2023-03-01T03:07:46;4.40;;;3.88;;
63801;SDS011;49949;43.060;25.624;2023-03-01T03:10:18;4.40;;;3.78;;
63801;SDS011;49949;43.060;25.624;2023-03-01T03:12:50;6.72;;;4.28;;
63801;SDS011;49949;43.060;25.624;2023-03-01T03:15:58;6.07;;;4.03;;
63801;SDS011;49949;43.060;25.624;2023-03-01T03:18:24;4.65;;;4.13;;
63801;SDS011;49949;43.060;25.624;2023-03-01T03:20:53;6.13;;;4.20;;
63801;SDS011;49949;43.060;25.624;2023-03-01T03:23:20;5.43;;;4.13;;
63801;SDS011;49949;43.060;25.624;2023-03-01T03:25:49;10.88;;;4.60;;
63801;SDS011;49949;43.060;25.624;2023-03-01T03:28:16;4.97;;;3.75;;
63801;SDS011;49949;43.060;25.624;2023-03-01T03:30:45;13.30;;;4.50;;
63801;SDS011;49949;43.060;25.624;2023-03-01T03:33:12;5.88;;;4.70;;
63801;SDS011;49949;43.060;25.624;2023-03-01T03:35:43;5.95;;;4.60;;
63801;SDS011;49949;43.060;25.624;2023-03-01T03:38:13;6.20;;;4.55;;
63801;SDS011;49949;43.060;25.624;2023-03-01T03:41:24;8.05;;;4.65;;
63801;SDS011;49949;43.060;25.624;2023-03-01T03:47:04;7.53;;;5.35;;
63801;SDS011;49949;43.060;25.624;2023-03-01T03:49:31;16.17;;;9.80;;
63801;SDS011;49949;43.060;25.624;2023-03-01T03:51:58;6.35;;;4.57;;
63801;SDS011;49949;43.060;25.624;2023-03-01T03:54:51;4.50;;;4.03;;
63801;SDS011;49949;43.060;25.624;2023-03-01T03:57:17;4.47;;;3.85;;
63801;SDS011;49949;43.060;25.624;2023-03-01T04:03:06;4.45;;;3.90;;
63801;SDS011;49949;43.060;25.624;2023-03-01T04:05:32;7.18;;;4.60;;
63801;SDS011;49949;43.060;25.624;2023-03-01T04:07:59;5.70;;;4.50;;
63801;SDS011;49949;43.060;25.624;2023-03-01T04:10:29;7.20;;;5.18;;
63801;SDS011;49949;43.060;25.624;2023-03-01T04:13:00;7.90;;;5.07;;
63801;SDS011;49949;43.060;25.624;2023-03-01T04:15:28;7.85;;;5.13;;
63801;SDS011;49949;43.060;25.624;2023-03-01T04:17:54;7.05;;;5.10;;
63801;SDS011;49949;43.060;25.624;2023-03-01T04:20:26;5.78;;;4.65;;
63801;SDS011;49949;43.060;25.624;2023-03-01T04:26:51;7.10;;;5.07;;
63801;SDS011;49949;43.060;25.624;2023-03-01T04:29:17;5.57;;;4.53;;
63801;SDS011;49949;43.060;25.624;2023-03-01T04:31:44;6.78;;;5.45;;
63801;SDS011;49949;43.060;25.624;2023-03-01T04:34:10;6.25;;;4.97;;
63801;SDS011;49949;43.060;25.624;2023-03-01T04:36:38;16.42;;;10.65;;
63801;SDS011;49949;43.060;25.624;2023-03-01T04:39:05;8.32;;;5.28;;
63801;SDS011;49949;43.060;25.624;2023-03-01T04:41:37;8.15;;;6.20;;
63801;SDS011;49949;43.060;25.624;2023-03-01T04:44:17;10.18;;;6.32;;
63801;SDS011;49949;43.060;25.624;2023-03-01T04:47:25;8.30;;;6.40;;
63801;SDS011;49949;43.060;25.624;2023-03-01T04:49:51;9.05;;;6.72;;
63801;SDS011;49949;43.060;25.624;2023-03-01T04:52:17;8.73;;;6.50;;
63801;SDS011;49949;43.060;25.624;2023-03-01T04:54:50;9.05;;;6.80;;
63801;SDS011;49949;43.060;25.624;2023-03-01T04:57:21;7.32;;;5.82;;
63801;SDS011;49949;43.060;25.624;2023-03-01T04:59:49;10.13;;;6.45;;
63801;SDS011;49949;43.060;25.624;2023-03-01T05:02:15;11.13;;;7.93;;
63801;SDS011;49949;43.060;25.624;2023-03-01T05:04:41;9.68;;;7.13;;
63801;SDS011;49949;43.060;25.624;2023-03-01T05:09:49;11.38;;;7.50;;
63801;SDS011;49949;43.060;25.624;2023-03-01T05:12:15;10.88;;;7.55;;
63801;SDS011;49949;43.060;25.624;2023-03-01T05:14:42;16.90;;;9.18;;
63801;SDS011;49949;43.060;25.624;2023-03-01T05:20:07;15.02;;;8.80;;
63801;SDS011;49949;43.060;25.624;2023-03-01T05:22:35;14.32;;;9.02;;
63801;SDS011;49949;43.060;25.624;2023-03-01T05:25:01;14.00;;;8.20;;
63801;SDS011;49949;43.060;25.624;2023-03-01T05:27:28;12.75;;;7.93;;
63801;SDS011;49949;43.060;25.624;2023-03-01T05:30:05;19.13;;;9.00;;
63801;SDS011;49949;43.060;25.624;2023-03-01T05:35:14;14.98;;;8.30;;
63801;SDS011;49949;43.060;25.624;2023-03-01T05:37:45;13.30;;;8.50;;
63801;SDS011;49949;43.060;25.624;2023-03-01T05:40:29;12.52;;;7.60;;
63801;SDS011;49949;43.060;25.624;2023-03-01T05:42:57;16.58;;;9.40;;
63801;SDS011;49949;43.060;25.624;2023-03-01T05:45:24;16.98;;;9.10;;
63801;SDS011;49949;43.060;25.624;2023-03-01T05:47:52;12.88;;;8.50;;
63801;SDS011;49949;43.060;25.624;2023-03-01T05:50:23;16.08;;;9.75;;
63801;SDS011;49949;43.060;25.624;2023-03-01T05:55:34;18.00;;;9.93;;
63801;SDS011;49949;43.060;25.624;2023-03-01T05:58:01;18.55;;;10.32;;
63801;SDS011;49949;43.060;25.624;2023-03-01T06:00:29;17.45;;;10.25;;
63801;SDS011;49949;43.060;25.624;2023-03-01T06:02:55;13.75;;;9.38;;
63801;SDS011;49949;43.060;25.624;2023-03-01T06:05:22;14.23;;;8.60;;
63801;SDS011;49949;43.060;25.624;2023-03-01T06:07:55;12.30;;;7.93;;
63801;SDS011;49949;43.060;25.624;2023-03-01T06:10:26;19.75;;;9.65;;
63801;SDS011;49949;43.060;25.624;2023-03-01T06:12:54;13.98;;;8.55;;
63801;SDS011;49949;43.060;25.624;2023-03-01T06:15:21;18.45;;;9.68;;
63801;SDS011;49949;43.060;25.624;2023-03-01T06:17:53;13.98;;;8.35;;
63801;SDS011;49949;43.060;25.624;2023-03-01T06:20:23;12.63;;;7.93;;
63801;SDS011;49949;43.060;25.624;2023-03-01T06:22:50;15.00;;;8.07;;
63801;SDS011;49949;43.060;25.624;2023-03-01T06:25:27;16.60;;;8.63;;
63801;SDS011;49949;43.060;25.624;2023-03-01T06:27:53;17.38;;;8.63;;
63801;SDS011;49949;43.060;25.624;2023-03-01T06:33:11;18.83;;;9.13;;
63801;SDS011;49949;43.060;25.624;2023-03-01T06:35:45;15.13;;;8.40;;
63801;SDS011;49949;43.060;25.624;2023-03-01T06:38:13;16.60;;;10.02;;
63801;SDS011;49949;43.060;25.624;2023-03-01T06:43:27;23.30;;;9.63;;
63801;SDS011;49949;43.060;25.624;2023-03-01T06:45:52;19.92;;;10.00;;
63801;SDS011;49949;43.060;25.624;2023-03-01T06:48:32;21.25;;;10.25;;
63801;SDS011;49949;43.060;25.624;2023-03-01T06:50:59;18.75;;;9.95;;
63801;SDS011;49949;43.060;25.624;2023-03-01T06:53:34;16.30;;;8.18;;
63801;SDS011;49949;43.060;25.624;2023-03-01T06:56:00;21.13;;;9.52;;
63801;SDS011;49949;43.060;25.624;2023-03-01T06:58:27;25.40;;;9.60;;
63801;SDS011;49949;43.060;25.624;2023-03-01T07:00:56;20.80;;;11.57;;
63801;SDS011;49949;43.060;25.624;2023-03-01T07:03:25;57.00;;;31.48;;
63801;SDS011;49949;43.060;25.624;2023-03-01T07:06:03;46.08;;;23.60;;
63801;SDS011;49949;43.060;25.624;2023-03-01T07:08:50;23.35;;;11.13;;
63801;SDS011;49949;43.060;25.624;2023-03-01T07:11:16;35.13;;;17.75;;
63801;SDS011;49949;43.060;25.624;2023-03-01T07:13:45;21.25;;;10.80;;
63801;SDS011;49949;43.060;25.624;2023-03-01T07:16:19;18.48;;;10.05;;
63801;SDS011;49949;43.060;25.624;2023-03-01T07:19:26;26.92;;;10.13;;
63801;SDS011;49949;43.060;25.624;2023-03-01T07:21:55;19.60;;;11.32;;
63801;SDS011;49949;43.060;25.624;2023-03-01T07:24:21;21.92;;;11.05;;
63801;SDS011;49949;43.060;25.624;2023-03-01T07:26:48;25.20;;;11.60;;
63801;SDS011;49949;43.060;25.624;2023-03-01T07:29:19;20.80;;;11.25;;
63801;SDS011;49949;43.060;25.624;2023-03-01T07:31:47;32.45;;;15.57;;
63801;SDS011;49949;43.060;25.624;2023-03-01T07:37:19;30.90;;;14.95;;
63801;SDS011;49949;43.060;25.624;2023-03-01T07:42:39;37.35;;;13.05;;
63801;SDS011;49949;43.060;25.624;2023-03-01T07:45:05;30.42;;;13.07;;
63801;SDS011;49949;43.060;25.624;2023-03-01T07:47:33;30.98;;;14.32;;
63801;SDS011;49949;43.060;25.624;2023-03-01T07:49:58;23.90;;;13.23;;
63801;SDS011;49949;43.060;25.624;2023-03-01T07:52:26;24.02;;;13.32;;
63801;SDS011;49949;43.060;25.624;2023-03-01T07:54:52;37.15;;;17.55;;
63801;SDS011;49949;43.060;25.624;2023-03-01T07:57:18;37.70;;;18.83;;
63801;SDS011;49949;43.060;25.624;2023-03-01T07:59:44;32.15;;;17.15;;
63801;SDS011;49949;43.060;25.624;2023-03-01T08:02:12;33.47;;;16.40;;
63801;SDS011;49949;43.060;25.624;2023-03-01T08:04:38;40.83;;;19.38;;
63801;SDS011;49949;43.060;25.624;2023-03-01T08:07:16;30.92;;;14.38;;
63801;SDS011;49949;43.060;25.624;2023-03-01T08:10:00;24.77;;;12.80;;
63801;SDS011;49949;43.060;25.624;2023-03-01T08:12:26;17.92;;;9.48;;
63801;SDS011;49949;43.060;25.624;2023-03-01T08:15:21;19.00;;;9.68;;
63801;SDS011;49949;43.060;25.624;2023-03-01T08:17:54;18.25;;;10.43;;
63801;SDS011;49949;43.060;25.624;2023-03-01T08:20:20;26.08;;;10.90;;
63801;SDS011;49949;43.060;25.624;2023-03-01T08:22:46;18.85;;;11.05;;
63801;SDS011;49949;43.060;25.624;2023-03-01T08:25:14;27.90;;;12.98;;
63801;SDS011;49949;43.060;25.624;2023-03-01T08:27:39;11.75;;;7.18;;
63801;SDS011;49949;43.060;25.624;2023-03-01T08:30:05;11.27;;;6.20;;
63801;SDS011;49949;43.060;25.624;2023-03-01T08:32:36;12.98;;;7.18;;
63801;SDS011;49949;43.060;25.624;2023-03-01T08:35:04;11.38;;;7.18;;
63801;SDS011;49949;43.060;25.624;2023-03-01T08:37:31;13.30;;;7.53;;
63801;SDS011;49949;43.060;25.624;2023-03-01T08:39:59;11.48;;;7.30;;
63801;SDS011;49949;43.060;25.624;2023-03-01T08:42:26;14.73;;;8.63;;
63801;SDS011;49949;43.060;25.624;2023-03-01T08:44:52;13.00;;;8.30;;
63801;SDS011;49949;43.060;25.624;2023-03-01T08:47:18;12.60;;;8.18;;
63801;SDS011;49949;43.060;25.624;2023-03-01T08:49:45;13.73;;;7.60;;
63801;SDS011;49949;43.060;25.624;2023-03-01T08:52:11;14.75;;;8.13;;
63801;SDS011;49949;43.060;25.624;2023-03-01T08:54:38;11.73;;;8.13;;
63801;SDS011;49949;43.060;25.624;2023-03-01T08:57:05;11.10;;;6.10;;
63801;SDS011;49949;43.060;25.624;2023-03-01T08:59:32;10.63;;;7.60;;
63801;SDS011;49949;43.060;25.624;2023-03-01T09:02:02;10.75;;;7.50;;
63801;SDS011;49949;43.060;25.624;2023-03-01T09:04:30;8.27;;;4.78;;
63801;SDS011;49949;43.060;25.624;2023-03-01T09:06:56;8.77;;;4.90;;
63801;SDS011;49949;43.060;25.624;2023-03-01T09:09:34;10.13;;;5.28;;
63801;SDS011;49949;43.060;25.624;2023-03-01T09:12:01;9.40;;;5.32;;
63801;SDS011;49949;43.060;25.624;2023-03-01T09:14:41;17.50;;;8.45;;
63801;SDS011;49949;43.060;25.624;2023-03-01T09:17:08;9.75;;;6.40;;
63801;SDS011;49949;43.060;25.624;2023-03-01T09:19:34;11.98;;;7.03;;
63801;SDS011;49949;43.060;25.624;2023-03-01T09:21:59;12.75;;;7.18;;
63801;SDS011;49949;43.060;25.624;2023-03-01T09:24:25;11.18;;;6.70;;
63801;SDS011;49949;43.060;25.624;2023-03-01T09:27:03;10.32;;;6.20;;
63801;SDS011;49949;43.060;25.624;2023-03-01T09:29:37;11.35;;;5.57;;
63801;SDS011;49949;43.060;25.624;2023-03-01T09:35:09;12.13;;;5.93;;
63801;SDS011;49949;43.060;25.624;2023-03-01T09:37:37;11.20;;;5.70;;
63801;SDS011;49949;43.060;25.624;2023-03-01T09:40:05;9.35;;;6.22;;
63801;SDS011;49949;43.060;25.624;2023-03-01T09:42:33;20.77;;;8.65;;
63801;SDS011;49949;43.060;25.624;2023-03-01T09:45:02;17.70;;;8.57;;
63801;SDS011;49949;43.060;25.624;2023-03-01T09:48:05;14.90;;;8.68;;
63801;SDS011;49949;43.060;25.624;2023-03-01T09:50:42;15.73;;;9.20;;
63801;SDS011;49949;43.060;25.624;2023-03-01T09:53:35;13.88;;;8.50;;
63801;SDS011;49949;43.060;25.624;2023-03-01T09:56:19;15.85;;;9.23;;
63801;SDS011;49949;43.060;25.624;2023-03-01T10:01:52;22.23;;;10.30;;
63801;SDS011;49949;43.060;25.624;2023-03-01T10:06:02;16.58;;;9.80;;
63801;SDS011;49949;43.060;25.624;2023-03-01T10:10:34;17.48;;;10.10;;
63801;SDS011;49949;43.060;25.624;2023-03-01T10:13:13;18.70;;;9.60;;
63801;SDS011;49949;43.060;25.624;2023-03-01T10:15:47;18.67;;;9.77;;
63801;SDS011;49949;43.060;25.624;2023-03-01T10:18:33;11.93;;;6.63;;
63801;SDS011;49949;43.060;25.624;2023-03-01T10:21:07;11.25;;;6.05;;
63801;SDS011;49949;43.060;25.624;2023-03-01T10:23:50;12.38;;;7.53;;
63801;SDS011;49949;43.060;25.624;2023-03-01T10:29:06;11.32;;;7.22;;
63801;SDS011;49949;43.060;25.624;2023-03-01T10:34:22;12.38;;;7.80;;
63801;SDS011;49949;43.060;25.624;2023-03-01T10:37:18;11.25;;;6.93;;
63801;SDS011;49949;43.060;25.624;2023-03-01T10:40:07;13.80;;;7.53;;
63801;SDS011;49949;43.060;25.624;2023-03-01T10:42:51;12.98;;;7.82;;
63801;SDS011;49949;43.060;25.624;2023-03-01T10:45:36;20.73;;;10.02;;
63801;SDS011;49949;43.060;25.624;2023-03-01T10:56:06;13.50;;;8.35;;
63801;SDS011;49949;43.060;25.624;2023-03-01T10:58:37;17.85;;;9.10;;
63801;SDS011;49949;43.060;25.624;2023-03-01T11:03:41;15.60;;;9.75;;
63801;SDS011;49949;43.060;25.624;2023-03-01T11:21:42;15.50;;;9.10;;
63801;SDS011;49949;43.060;25.624;2023-03-01T11:24:21;15.52;;;8.13;;
63801;SDS011;49949;43.060;25.624;2023-03-01T11:30:00;15.07;;;8.98;;
63801;SDS011;49949;43.060;25.624;2023-03-01T11:32:44;16.60;;;8.50;;
63801;SDS011;49949;43.060;25.624;2023-03-01T11:38:32;14.88;;;9.10;;
63801;SDS011;49949;43.060;25.624;2023-03-01T11:41:13;14.38;;;8.93;;
63801;SDS011;49949;43.060;25.624;2023-03-01T12:06:20;16.40;;;10.18;;
63801;SDS011;49949;43.060;25.624;2023-03-01T12:15:00;18.60;;;11.25;;
63801;SDS011;49949;43.060;25.624;2023-03-01T12:17:44;21.20;;;11.60;;
63801;SDS011;49949;43.060;25.624;2023-03-01T12:26:10;18.40;;;10.85;;
63801;SDS011;49949;43.060;25.624;2023-03-01T12:29:06;19.70;;;10.85;;
63801;SDS011;49949;43.060;25.624;2023-03-01T12:37:24;25.45;;;13.50;;
63801;SDS011;49949;43.060;25.624;2023-03-01T12:40:12;22.73;;;13.75;;
63801;SDS011;49949;43.060;25.624;2023-03-01T12:49:09;24.88;;;12.25;;
63801;SDS011;49949;43.060;25.624;2023-03-01T12:51:40;20.60;;;11.90;;
63801;SDS011;49949;43.060;25.624;2023-03-01T12:54:21;20.48;;;12.65;;
63801;SDS011;49949;43.060;25.624;2023-03-01T12:57:03;16.55;;;10.02;;
63801;SDS011;49949;43.060;25.624;2023-03-01T12:59:42;15.15;;;9.43;;
63801;SDS011;49949;43.060;25.624;2023-03-01T13:02:41;16.58;;;9.80;;
63801;SDS011;49949;43.060;25.624;2023-03-01T13:06:04;23.13;;;11.07;;
63801;SDS011;49949;43.060;25.624;2023-03-01T13:14:49;18.45;;;11.40;;
63801;SDS011;49949;43.060;25.624;2023-03-01T13:20:33;20.63;;;12.18;;
63801;SDS011;49949;43.060;25.624;2023-03-01T13:34:01;24.63;;;12.93;;
63801;SDS011;49949;43.060;25.624;2023-03-01T13:39:03;21.33;;;10.95;;
63801;SDS011;49949;43.060;25.624;2023-03-01T13:41:57;25.02;;;12.13;;
63801;SDS011;49949;43.060;25.624;2023-03-01T13:44:28;21.92;;;12.70;;
63801;SDS011;49949;43.060;25.624;2023-03-01T13:49:48;20.58;;;11.85;;
63801;SDS011;49949;43.060;25.624;2023-03-01T13:52:40;24.00;;;12.47;;
63801;SDS011;49949;43.060;25.624;2023-03-01T13:59:05;24.15;;;11.60;;
63801;SDS011;49949;43.060;25.624;2023-03-01T14:01:44;19.80;;;11.02;;
63801;SDS011;49949;43.060;25.624;2023-03-01T14:09:50;21.42;;;10.90;;
63801;SDS011;49949;43.060;25.624;2023-03-01T14:15:35;16.90;;;10.38;;
63801;SDS011;49949;43.060;25.624;2023-03-01T14:18:17;20.73;;;9.75;;
63801;SDS011;49949;43.060;25.624;2023-03-01T14:20:52;19.25;;;10.02;;
63801;SDS011;49949;43.060;25.624;2023-03-01T14:23:23;23.08;;;10.05;;
63801;SDS011;49949;43.060;25.624;2023-03-01T14:25:56;15.43;;;9.60;;
63801;SDS011;49949;43.060;25.624;2023-03-01T14:28:28;20.52;;;9.93;;
63801;SDS011;49949;43.060;25.624;2023-03-01T14:31:03;41.85;;;10.23;;
63801;SDS011;49949;43.060;25.624;2023-03-01T14:33:56;27.95;;;9.70;;
63801;SDS011;49949;43.060;25.624;2023-03-01T14:36:34;25.20;;;9.93;;
63801;SDS011;49949;43.060;25.624;2023-03-01T14:39:15;28.45;;;10.02;;
63801;SDS011;49949;43.060;25.624;2023-03-01T14:41:49;27.05;;;10.73;;
63801;SDS011;49949;43.060;25.624;2023-03-01T14:44:22;23.98;;;10.00;;
63801;SDS011;49949;43.060;25.624;2023-03-01T14:46:53;19.85;;;9.65;;
63801;SDS011;49949;43.060;25.624;2023-03-01T14:49:26;34.97;;;11.38;;
63801;SDS011;49949;43.060;25.624;2023-03-01T14:57:23;24.40;;;10.55;;
63801;SDS011;49949;43.060;25.624;2023-03-01T14:59:53;27.45;;;10.65;;
63801;SDS011;49949;43.060;25.624;2023-03-01T15:02:23;36.50;;;13.80;;
63801;SDS011;49949;43.060;25.624;2023-03-01T15:07:30;24.15;;;10.60;;
63801;SDS011;49949;43.060;25.624;2023-03-01T15:09:59;21.67;;;10.02;;
63801;SDS011;49949;43.060;25.624;2023-03-01T15:20:46;22.65;;;10.70;;
63801;SDS011;49949;43.060;25.624;2023-03-01T15:25:56;20.25;;;10.32;;
63801;SDS011;49949;43.060;25.624;2023-03-01T15:31:33;23.92;;;10.48;;
63801;SDS011;49949;43.060;25.624;2023-03-01T15:37:02;18.10;;;10.48;;
63801;SDS011;49949;43.060;25.624;2023-03-01T15:48:17;21.47;;;10.90;;
63801;SDS011;49949;43.060;25.624;2023-03-01T15:51:12;20.52;;;10.15;;
63801;SDS011;49949;43.060;25.624;2023-03-01T15:54:02;24.52;;;10.50;;
63801;SDS011;49949;43.060;25.624;2023-03-01T15:56:34;18.65;;;10.63;;
63801;SDS011;49949;43.060;25.624;2023-03-01T15:59:01;21.20;;;11.02;;
63801;SDS011;49949;43.060;25.624;2023-03-01T16:01:28;22.73;;;10.45;;
63801;SDS011;49949;43.060;25.624;2023-03-01T16:03:58;24.45;;;11.32;;
63801;SDS011;49949;43.060;25.624;2023-03-01T16:06:35;23.52;;;11.43;;
63801;SDS011;49949;43.060;25.624;2023-03-01T16:10:10;24.20;;;11.40;;
63801;SDS011;49949;43.060;25.624;2023-03-01T16:12:37;18.58;;;11.65;;
63801;SDS011;49949;43.060;25.624;2023-03-01T16:15:04;23.80;;;11.88;;
63801;SDS011;49949;43.060;25.624;2023-03-01T16:17:38;29.17;;;13.15;;
63801;SDS011;49949;43.060;25.624;2023-03-01T16:20:04;26.15;;;12.50;;
63801;SDS011;49949;43.060;25.624;2023-03-01T16:22:42;29.95;;;15.07;;
63801;SDS011;49949;43.060;25.624;2023-03-01T16:25:40;33.03;;;13.02;;
63801;SDS011;49949;43.060;25.624;2023-03-01T16:28:06;29.70;;;14.00;;
63801;SDS011;49949;43.060;25.624;2023-03-01T16:30:45;36.25;;;13.90;;
63801;SDS011;49949;43.060;25.624;2023-03-01T16:33:56;30.50;;;13.20;;
63801;SDS011;49949;43.060;25.624;2023-03-01T16:36:27;24.77;;;13.70;;
63801;SDS011;49949;43.060;25.624;2023-03-01T16:38:54;26.83;;;14.73;;
63801;SDS011;49949;43.060;25.624;2023-03-01T16:41:31;25.60;;;12.80;;
63801;SDS011;49949;43.060;25.624;2023-03-01T16:44:46;30.70;;;14.65;;
63801;SDS011;49949;43.060;25.624;2023-03-01T16:47:12;33.55;;;15.23;;
63801;SDS011;49949;43.060;25.624;2023-03-01T16:49:39;32.60;;;15.23;;
63801;SDS011;49949;43.060;25.624;2023-03-01T16:52:05;33.13;;;15.80;;
63801;SDS011;49949;43.060;25.624;2023-03-01T16:54:39;31.98;;;14.90;;
63801;SDS011;49949;43.060;25.624;2023-03-01T16:57:05;38.58;;;17.92;;
63801;SDS011;49949;43.060;25.624;2023-03-01T16:59:31;29.98;;;15.85;;
63801;SDS011;49949;43.060;25.624;2023-03-01T17:01:57;32.58;;;15.35;;
63801;SDS011;49949;43.060;25.624;2023-03-01T17:04:22;29.73;;;16.25;;
63801;SDS011;49949;43.060;25.624;2023-03-01T17:06:48;30.02;;;15.63;;
63801;SDS011;49949;43.060;25.624;2023-03-01T17:09:16;34.15;;;15.55;;
63801;SDS011;49949;43.060;25.624;2023-03-01T17:11:58;28.08;;;15.90;;
63801;SDS011;49949;43.060;25.624;2023-03-01T17:17:32;35.88;;;17.27;;
63801;SDS011;49949;43.060;25.624;2023-03-01T17:20:06;30.25;;;16.17;;
63801;SDS011;49949;43.060;25.624;2023-03-01T17:22:33;36.53;;;17.90;;
63801;SDS011;49949;43.060;25.624;2023-03-01T17:24:59;36.53;;;17.15;;
63801;SDS011;49949;43.060;25.624;2023-03-01T17:27:30;33.78;;;17.20;;
63801;SDS011;49949;43.060;25.624;2023-03-01T17:29:59;39.55;;;18.02;;
63801;SDS011;49949;43.060;25.624;2023-03-01T17:32:25;35.78;;;17.35;;
63801;SDS011;49949;43.060;25.624;2023-03-01T17:34:51;37.95;;;17.73;;
63801;SDS011;49949;43.060;25.624;2023-03-01T17:37:17;36.28;;;18.13;;
63801;SDS011;49949;43.060;25.624;2023-03-01T17:39:43;36.10;;;17.25;;
63801;SDS011;49949;43.060;25.624;2023-03-01T17:42:09;36.03;;;15.98;;
63801;SDS011;49949;43.060;25.624;2023-03-01T17:44:35;38.13;;;18.40;;
63801;SDS011;49949;43.060;25.624;2023-03-01T17:47:01;35.90;;;19.05;;
63801;SDS011;49949;43.060;25.624;2023-03-01T17:49:32;39.70;;;19.17;;
63801;SDS011;49949;43.060;25.624;2023-03-01T17:51:58;44.67;;;19.00;;
63801;SDS011;49949;43.060;25.624;2023-03-01T17:54:24;40.47;;;19.25;;
63801;SDS011;49949;43.060;25.624;2023-03-01T17:56:50;40.47;;;18.45;;
63801;SDS011;49949;43.060;25.624;2023-03-01T17:59:16;36.47;;;17.20;;
63801;SDS011;49949;43.060;25.624;2023-03-01T18:01:42;36.92;;;17.55;;
63801;SDS011;49949;43.060;25.624;2023-03-01T18:04:08;37.78;;;16.98;;
63801;SDS011;49949;43.060;25.624;2023-03-01T18:06:34;35.45;;;17.02;;
63801;SDS011;49949;43.060;25.624;2023-03-01T18:09:00;30.02;;;14.27;;
63801;SDS011;49949;43.060;25.624;2023-03-01T18:11:45;30.60;;;14.82;;
63801;SDS011;49949;43.060;25.624;2023-03-01T18:14:11;24.52;;;10.35;;
63801;SDS011;49949;43.060;25.624;2023-03-01T18:16:37;28.88;;;14.38;;
63801;SDS011;49949;43.060;25.624;2023-03-01T18:21:45;25.50;;;12.82;;
63801;SDS011;49949;43.060;25.624;2023-03-01T18:24:11;23.25;;;13.25;;
63801;SDS011;49949;43.060;25.624;2023-03-01T18:26:49;23.55;;;10.23;;
63801;SDS011;49949;43.060;25.624;2023-03-01T18:29:15;23.73;;;12.25;;
63801;SDS011;49949;43.060;25.624;2023-03-01T18:31:41;27.42;;;13.70;;
63801;SDS011;49949;43.060;25.624;2023-03-01T18:34:12;24.30;;;12.90;;
63801;SDS011;49949;43.060;25.624;2023-03-01T18:36:38;28.20;;;13.98;;
63801;SDS011;49949;43.060;25.624;2023-03-01T18:39:05;24.67;;;13.93;;
63801;SDS011;49949;43.060;25.624;2023-03-01T18:41:32;22.50;;;11.70;;
63801;SDS011;49949;43.060;25.624;2023-03-01T18:44:00;25.45;;;13.45;;
63801;SDS011;49949;43.060;25.624;2023-03-01T18:46:28;25.23;;;12.65;;
63801;SDS011;49949;43.060;25.624;2023-03-01T18:48:56;36.30;;;14.80;;
63801;SDS011;49949;43.060;25.624;2023-03-01T18:51:24;28.65;;;14.40;;
63801;SDS011;49949;43.060;25.624;2023-03-01T18:53:51;27.98;;;14.75;;
63801;SDS011;49949;43.060;25.624;2023-03-01T18:56:18;26.63;;;13.25;;
63801;SDS011;49949;43.060;25.624;2023-03-01T18:58:53;25.02;;;13.48;;
63801;SDS011;49949;43.060;25.624;2023-03-01T19:01:22;23.83;;;11.75;;
63801;SDS011;49949;43.060;25.624;2023-03-01T19:03:50;34.40;;;15.65;;
63801;SDS011;49949;43.060;25.624;2023-03-01T19:06:17;28.98;;;14.38;;